sensor_id;sensor_type;location;lat;lon;timestamp;P1;durP1;ratioP1;P2;durP2;ratioP2
2622;SDS011;1321;48.690;9.022;2023-04-15T00:00:01;6.83;;;6.17;;
2622;SDS011;1321;48.690;9.022;2023-04-15T00:02:30;6.70;;;6.23;;
2622;SDS011;1321;48.690;9.022;2023-04-15T00:04:58;5.87;;;5.50;;
2622;SDS011;1321;48.690;9.022;2023-04-15T00:07:26;6.17;;;5.77;;
2622;SDS011;1321;48.690;9.022;2023-04-15T00:09:55;6.37;;;5.90;;
2622;SDS011;1321;48.690;9.022;2023-04-15T00:12:23;8.10;;;6.97;;
2622;SDS011;1321;48.690;9.022;2023-04-15T00:14:51;6.67;;;6.07;;
2622;SDS011;1321;48.690;9.022;2023-04-15T00:17:21;6.70;;;6.00;;
2622;SDS011;1321;48.690;9.022;2023-04-15T00:19:49;7.70;;;6.10;;
2622;SDS011;1321;48.690;9.022;2023-04-15T00:22:17;7.93;;;7.20;;
2622;SDS011;1321;48.690;9.022;2023-04-15T00:24:45;7.50;;;6.87;;
2622;SDS011;1321;48.690;9.022;2023-04-15T00:27:13;7.50;;;6.90;;
2622;SDS011;1321;48.690;9.022;2023-04-15T00:29:41;8.37;;;7.10;;
2622;SDS011;1321;48.690;9.022;2023-04-15T00:32:10;7.50;;;6.90;;
2622;SDS011;1321;48.690;9.022;2023-04-15T00:34:40;6.33;;;5.83;;
2622;SDS011;1321;48.690;9.022;2023-04-15T00:37:08;10.10;;;6.80;;
2622;SDS011;1321;48.690;9.022;2023-04-15T00:39:36;7.27;;;6.63;;
2622;SDS011;1321;48.690;9.022;2023-04-15T00:42:04;7.83;;;7.03;;
2622;SDS011;1321;48.690;9.022;2023-04-15T00:44:33;7.60;;;7.00;;
2622;SDS011;1321;48.690;9.022;2023-04-15T00:47:01;8.33;;;7.73;;
2622;SDS011;1321;48.690;9.022;2023-04-15T00:49:31;7.87;;;7.20;;
2622;SDS011;1321;48.690;9.022;2023-04-15T00:52:00;7.10;;;6.70;;
2622;SDS011;1321;48.690;9.022;2023-04-15T00:54:29;7.73;;;7.03;;
2622;SDS011;1321;48.690;9.022;2023-04-15T00:56:57;7.30;;;6.80;;
2622;SDS011;1321;48.690;9.022;2023-04-15T00:59:26;7.70;;;7.10;;
2622;SDS011;1321;48.690;9.022;2023-04-15T01:01:55;7.50;;;6.90;;
2622;SDS011;1321;48.690;9.022;2023-04-15T01:04:23;8.10;;;7.43;;
2622;SDS011;1321;48.690;9.022;2023-04-15T01:06:53;12.57;;;11.27;;
2622;SDS011;1321;48.690;9.022;2023-04-15T01:09:22;11.40;;;10.10;;
2622;SDS011;1321;48.690;9.022;2023-04-15T01:11:51;10.63;;;9.70;;
2622;SDS011;1321;48.690;9.022;2023-04-15T01:14:19;9.50;;;8.60;;
2622;SDS011;1321;48.690;9.022;2023-04-15T01:16:48;8.60;;;8.00;;
2622;SDS011;1321;48.690;9.022;2023-04-15T01:19:16;8.90;;;8.30;;
2622;SDS011;1321;48.690;9.022;2023-04-15T01:21:44;8.77;;;8.07;;
2622;SDS011;1321;48.690;9.022;2023-04-15T01:24:13;8.60;;;8.10;;
2622;SDS011;1321;48.690;9.022;2023-04-15T01:26:45;9.10;;;8.30;;
2622;SDS011;1321;48.690;9.022;2023-04-15T01:29:15;6.90;;;6.40;;
2622;SDS011;1321;48.690;9.022;2023-04-15T01:31:48;8.20;;;7.47;;
2622;SDS011;1321;48.690;9.022;2023-04-15T01:34:18;7.43;;;6.77;;
2622;SDS011;1321;48.690;9.022;2023-04-15T01:36:46;7.80;;;7.10;;
2622;SDS011;1321;48.690;9.022;2023-04-15T01:39:15;6.87;;;6.10;;
2622;SDS011;1321;48.690;9.022;2023-04-15T01:41:43;7.30;;;6.70;;
2622;SDS011;1321;48.690;9.022;2023-04-15T01:44:12;7.20;;;6.43;;
2622;SDS011;1321;48.690;9.022;2023-04-15T01:46:41;6.70;;;6.30;;
2622;SDS011;1321;48.690;9.022;2023-04-15T01:49:09;7.53;;;6.83;;
2622;SDS011;1321;48.690;9.022;2023-04-15T01:51:37;6.43;;;5.93;;
2622;SDS011;1321;48.690;9.022;2023-04-15T01:54:05;6.63;;;6.13;;
2622;SDS011;1321;48.690;9.022;2023-04-15T01:56:33;7.93;;;7.43;;
2622;SDS011;1321;48.690;9.022;2023-04-15T01:59:01;7.10;;;6.60;;
2622;SDS011;1321;48.690;9.022;2023-04-15T02:01:31;7.17;;;6.67;;
2622;SDS011;1321;48.690;9.022;2023-04-15T02:04:00;6.83;;;6.43;;
2622;SDS011;1321;48.690;9.022;2023-04-15T02:06:28;7.20;;;6.60;;
2622;SDS011;1321;48.690;9.022;2023-04-15T02:08:56;7.77;;;6.90;;
2622;SDS011;1321;48.690;9.022;2023-04-15T02:11:25;7.30;;;6.80;;
2622;SDS011;1321;48.690;9.022;2023-04-15T02:13:54;7.10;;;6.57;;
2622;SDS011;1321;48.690;9.022;2023-04-15T02:16:22;7.90;;;7.40;;
2622;SDS011;1321;48.690;9.022;2023-04-15T02:18:51;7.23;;;6.63;;
2622;SDS011;1321;48.690;9.022;2023-04-15T02:21:19;7.80;;;7.33;;
2622;SDS011;1321;48.690;9.022;2023-04-15T02:23:48;6.63;;;6.23;;
2622;SDS011;1321;48.690;9.022;2023-04-15T02:26:19;7.47;;;6.90;;
2622;SDS011;1321;48.690;9.022;2023-04-15T02:28:48;6.80;;;6.40;;
2622;SDS011;1321;48.690;9.022;2023-04-15T02:31:16;6.87;;;6.37;;
2622;SDS011;1321;48.690;9.022;2023-04-15T02:33:45;6.70;;;6.40;;
2622;SDS011;1321;48.690;9.022;2023-04-15T02:36:14;7.10;;;6.60;;
2622;SDS011;1321;48.690;9.022;2023-04-15T02:38:42;7.20;;;6.70;;
2622;SDS011;1321;48.690;9.022;2023-04-15T02:41:11;6.20;;;5.90;;
2622;SDS011;1321;48.690;9.022;2023-04-15T02:43:39;6.87;;;6.37;;
2622;SDS011;1321;48.690;9.022;2023-04-15T02:46:07;8.87;;;6.20;;
2622;SDS011;1321;48.690;9.022;2023-04-15T02:48:39;7.80;;;7.00;;
2622;SDS011;1321;48.690;9.022;2023-04-15T02:51:11;6.23;;;5.63;;
2622;SDS011;1321;48.690;9.022;2023-04-15T02:53:42;6.60;;;6.10;;
2622;SDS011;1321;48.690;9.022;2023-04-15T02:56:10;6.73;;;6.13;;
2622;SDS011;1321;48.690;9.022;2023-04-15T02:58:40;6.50;;;6.00;;
2622;SDS011;1321;48.690;9.022;2023-04-15T03:01:08;6.83;;;6.30;;
2622;SDS011;1321;48.690;9.022;2023-04-15T03:03:36;6.83;;;6.33;;
2622;SDS011;1321;48.690;9.022;2023-04-15T03:06:05;6.80;;;6.00;;
2622;SDS011;1321;48.690;9.022;2023-04-15T03:08:34;6.73;;;6.33;;
2622;SDS011;1321;48.690;9.022;2023-04-15T03:11:04;6.80;;;6.33;;
2622;SDS011;1321;48.690;9.022;2023-04-15T03:13:33;7.17;;;6.57;;
2622;SDS011;1321;48.690;9.022;2023-04-15T03:16:01;7.37;;;6.70;;
2622;SDS011;1321;48.690;9.022;2023-04-15T03:18:29;6.70;;;6.30;;
2622;SDS011;1321;48.690;9.022;2023-04-15T03:20:58;7.83;;;7.03;;
2622;SDS011;1321;48.690;9.022;2023-04-15T03:23:26;8.73;;;7.90;;
2622;SDS011;1321;48.690;9.022;2023-04-15T03:25:54;15.83;;;8.77;;
2622;SDS011;1321;48.690;9.022;2023-04-15T03:28:24;9.23;;;8.30;;
2622;SDS011;1321;48.690;9.022;2023-04-15T03:30:52;10.10;;;7.90;;
2622;SDS011;1321;48.690;9.022;2023-04-15T03:33:21;9.87;;;8.30;;
2622;SDS011;1321;48.690;9.022;2023-04-15T03:35:49;8.73;;;7.73;;
2622;SDS011;1321;48.690;9.022;2023-04-15T03:38:18;7.90;;;7.10;;
2622;SDS011;1321;48.690;9.022;2023-04-15T03:40:46;7.13;;;6.63;;
2622;SDS011;1321;48.690;9.022;2023-04-15T03:43:14;7.50;;;6.90;;
2622;SDS011;1321;48.690;9.022;2023-04-15T03:45:44;7.30;;;6.90;;
2622;SDS011;1321;48.690;9.022;2023-04-15T03:48:12;8.23;;;7.40;;
2622;SDS011;1321;48.690;9.022;2023-04-15T03:50:43;6.90;;;6.50;;
2622;SDS011;1321;48.690;9.022;2023-04-15T03:53:11;7.57;;;6.87;;
2622;SDS011;1321;48.690;9.022;2023-04-15T03:55:39;7.73;;;7.00;;
2622;SDS011;1321;48.690;9.022;2023-04-15T03:58:08;9.53;;;6.73;;
2622;SDS011;1321;48.690;9.022;2023-04-15T04:00:38;6.87;;;6.23;;
2622;SDS011;1321;48.690;9.022;2023-04-15T04:03:08;8.13;;;7.07;;
2622;SDS011;1321;48.690;9.022;2023-04-15T04:05:37;7.20;;;6.70;;
2622;SDS011;1321;48.690;9.022;2023-04-15T04:08:06;7.03;;;6.53;;
2622;SDS011;1321;48.690;9.022;2023-04-15T04:10:35;6.50;;;6.03;;
2622;SDS011;1321;48.690;9.022;2023-04-15T04:13:03;7.03;;;6.63;;
2622;SDS011;1321;48.690;9.022;2023-04-15T04:15:31;6.67;;;6.27;;
2622;SDS011;1321;48.690;9.022;2023-04-15T04:17:59;6.10;;;5.80;;
2622;SDS011;1321;48.690;9.022;2023-04-15T04:20:29;6.70;;;6.40;;
2622;SDS011;1321;48.690;9.022;2023-04-15T04:22:58;7.20;;;6.70;;
2622;SDS011;1321;48.690;9.022;2023-04-15T04:25:26;6.70;;;6.30;;
2622;SDS011;1321;48.690;9.022;2023-04-15T04:27:54;6.60;;;6.00;;
2622;SDS011;1321;48.690;9.022;2023-04-15T04:30:22;6.20;;;5.80;;
2622;SDS011;1321;48.690;9.022;2023-04-15T04:32:51;5.90;;;5.53;;
2622;SDS011;1321;48.690;9.022;2023-04-15T04:35:19;6.80;;;6.40;;
2622;SDS011;1321;48.690;9.022;2023-04-15T04:37:49;6.60;;;6.30;;
2622;SDS011;1321;48.690;9.022;2023-04-15T04:40:17;6.80;;;6.50;;
2622;SDS011;1321;48.690;9.022;2023-04-15T04:42:46;6.70;;;6.20;;
2622;SDS011;1321;48.690;9.022;2023-04-15T04:45:14;8.23;;;6.47;;
2622;SDS011;1321;48.690;9.022;2023-04-15T04:47:42;5.80;;;5.50;;
2622;SDS011;1321;48.690;9.022;2023-04-15T04:50:10;6.03;;;5.83;;
2622;SDS011;1321;48.690;9.022;2023-04-15T04:52:38;6.73;;;6.43;;
2622;SDS011;1321;48.690;9.022;2023-04-15T04:55:08;6.20;;;5.80;;
2622;SDS011;1321;48.690;9.022;2023-04-15T04:57:36;6.93;;;6.40;;
2622;SDS011;1321;48.690;9.022;2023-04-15T05:00:06;6.80;;;6.30;;
2622;SDS011;1321;48.690;9.022;2023-04-15T05:02:35;7.10;;;6.70;;
2622;SDS011;1321;48.690;9.022;2023-04-15T05:05:04;7.53;;;7.03;;
2622;SDS011;1321;48.690;9.022;2023-04-15T05:07:33;6.60;;;6.30;;
2622;SDS011;1321;48.690;9.022;2023-04-15T05:10:01;7.43;;;6.93;;
2622;SDS011;1321;48.690;9.022;2023-04-15T05:12:31;7.10;;;6.70;;
2622;SDS011;1321;48.690;9.022;2023-04-15T05:14:59;6.73;;;6.50;;
2622;SDS011;1321;48.690;9.022;2023-04-15T05:17:27;6.63;;;6.43;;
2622;SDS011;1321;48.690;9.022;2023-04-15T05:19:57;7.20;;;6.80;;
2622;SDS011;1321;48.690;9.022;2023-04-15T05:22:25;7.37;;;6.93;;
2622;SDS011;1321;48.690;9.022;2023-04-15T05:24:53;8.17;;;7.40;;
2622;SDS011;1321;48.690;9.022;2023-04-15T05:27:21;7.50;;;7.10;;
2622;SDS011;1321;48.690;9.022;2023-04-15T05:29:51;7.77;;;7.20;;
2622;SDS011;1321;48.690;9.022;2023-04-15T05:32:19;7.10;;;6.80;;
2622;SDS011;1321;48.690;9.022;2023-04-15T05:34:48;8.13;;;7.63;;
2622;SDS011;1321;48.690;9.022;2023-04-15T05:37:16;7.40;;;6.90;;
2622;SDS011;1321;48.690;9.022;2023-04-15T05:39:46;8.00;;;7.50;;
2622;SDS011;1321;48.690;9.022;2023-04-15T05:42:14;6.70;;;6.17;;
2622;SDS011;1321;48.690;9.022;2023-04-15T05:44:42;7.43;;;7.00;;
2622;SDS011;1321;48.690;9.022;2023-04-15T05:47:12;8.20;;;7.60;;
2622;SDS011;1321;48.690;9.022;2023-04-15T05:49:41;7.73;;;7.30;;
2622;SDS011;1321;48.690;9.022;2023-04-15T05:52:09;7.60;;;7.10;;
2622;SDS011;1321;48.690;9.022;2023-04-15T05:54:37;7.43;;;7.10;;
2622;SDS011;1321;48.690;9.022;2023-04-15T05:57:05;7.87;;;7.40;;
2622;SDS011;1321;48.690;9.022;2023-04-15T05:59:33;7.77;;;7.37;;
2622;SDS011;1321;48.690;9.022;2023-04-15T06:02:01;9.20;;;8.33;;
2622;SDS011;1321;48.690;9.022;2023-04-15T06:04:31;9.70;;;9.10;;
2622;SDS011;1321;48.690;9.022;2023-04-15T06:06:59;9.83;;;9.23;;
2622;SDS011;1321;48.690;9.022;2023-04-15T06:09:28;8.97;;;8.37;;
2622;SDS011;1321;48.690;9.022;2023-04-15T06:11:56;10.70;;;9.80;;
2622;SDS011;1321;48.690;9.022;2023-04-15T06:14:25;9.17;;;8.57;;
2622;SDS011;1321;48.690;9.022;2023-04-15T06:16:53;7.90;;;7.43;;
2622;SDS011;1321;48.690;9.022;2023-04-15T06:19:21;8.03;;;7.50;;
2622;SDS011;1321;48.690;9.022;2023-04-15T06:21:51;8.10;;;7.73;;
2622;SDS011;1321;48.690;9.022;2023-04-15T06:24:19;8.27;;;7.77;;
2622;SDS011;1321;48.690;9.022;2023-04-15T06:26:47;8.00;;;7.60;;
2622;SDS011;1321;48.690;9.022;2023-04-15T06:29:15;7.90;;;7.50;;
2622;SDS011;1321;48.690;9.022;2023-04-15T06:31:44;9.27;;;8.60;;
2622;SDS011;1321;48.690;9.022;2023-04-15T06:34:14;8.17;;;7.40;;
2622;SDS011;1321;48.690;9.022;2023-04-15T06:36:42;7.80;;;7.50;;
2622;SDS011;1321;48.690;9.022;2023-04-15T06:39:12;8.27;;;7.67;;
2622;SDS011;1321;48.690;9.022;2023-04-15T06:41:40;7.90;;;7.50;;
2622;SDS011;1321;48.690;9.022;2023-04-15T06:44:08;8.57;;;7.60;;
2622;SDS011;1321;48.690;9.022;2023-04-15T06:46:37;8.10;;;7.70;;
2622;SDS011;1321;48.690;9.022;2023-04-15T06:49:05;8.20;;;7.70;;
2622;SDS011;1321;48.690;9.022;2023-04-15T06:51:33;9.30;;;8.70;;
2622;SDS011;1321;48.690;9.022;2023-04-15T06:54:02;8.43;;;7.93;;
2622;SDS011;1321;48.690;9.022;2023-04-15T06:56:33;9.30;;;8.77;;
2622;SDS011;1321;48.690;9.022;2023-04-15T06:59:04;9.00;;;8.17;;
2622;SDS011;1321;48.690;9.022;2023-04-15T07:01:33;10.70;;;9.67;;
2622;SDS011;1321;48.690;9.022;2023-04-15T07:04:02;8.63;;;8.13;;
2622;SDS011;1321;48.690;9.022;2023-04-15T07:06:30;7.80;;;7.50;;
2622;SDS011;1321;48.690;9.022;2023-04-15T07:08:59;9.70;;;8.90;;
2622;SDS011;1321;48.690;9.022;2023-04-15T07:11:28;8.07;;;7.67;;
2622;SDS011;1321;48.690;9.022;2023-04-15T07:13:58;9.00;;;8.40;;
2622;SDS011;1321;48.690;9.022;2023-04-15T07:16:26;8.53;;;8.03;;
2622;SDS011;1321;48.690;9.022;2023-04-15T07:18:56;8.03;;;7.63;;
2622;SDS011;1321;48.690;9.022;2023-04-15T07:21:24;8.10;;;7.43;;
2622;SDS011;1321;48.690;9.022;2023-04-15T07:23:53;7.97;;;7.47;;
2622;SDS011;1321;48.690;9.022;2023-04-15T07:26:21;8.70;;;8.13;;
2622;SDS011;1321;48.690;9.022;2023-04-15T07:28:49;8.07;;;7.77;;
2622;SDS011;1321;48.690;9.022;2023-04-15T07:31:19;8.20;;;7.80;;
2622;SDS011;1321;48.690;9.022;2023-04-15T07:33:47;7.90;;;7.47;;
2622;SDS011;1321;48.690;9.022;2023-04-15T07:36:15;8.17;;;7.67;;
2622;SDS011;1321;48.690;9.022;2023-04-15T07:38:44;8.83;;;7.97;;
2622;SDS011;1321;48.690;9.022;2023-04-15T07:41:12;8.87;;;8.33;;
2622;SDS011;1321;48.690;9.022;2023-04-15T07:43:41;8.27;;;7.50;;
2622;SDS011;1321;48.690;9.022;2023-04-15T07:46:10;7.77;;;7.33;;
2622;SDS011;1321;48.690;9.022;2023-04-15T07:48:39;8.30;;;7.80;;
2622;SDS011;1321;48.690;9.022;2023-04-15T07:51:08;8.70;;;8.20;;
2622;SDS011;1321;48.690;9.022;2023-04-15T07:53:38;8.63;;;7.93;;
2622;SDS011;1321;48.690;9.022;2023-04-15T07:56:06;8.23;;;7.60;;
2622;SDS011;1321;48.690;9.022;2023-04-15T07:58:34;8.20;;;7.60;;
2622;SDS011;1321;48.690;9.022;2023-04-15T08:01:03;8.97;;;8.27;;
2622;SDS011;1321;48.690;9.022;2023-04-15T08:03:32;8.50;;;8.00;;
2622;SDS011;1321;48.690;9.022;2023-04-15T08:06:02;7.30;;;7.00;;
2622;SDS011;1321;48.690;9.022;2023-04-15T08:08:30;8.67;;;7.97;;
2622;SDS011;1321;48.690;9.022;2023-04-15T08:10:58;8.73;;;8.00;;
2622;SDS011;1321;48.690;9.022;2023-04-15T08:13:26;8.63;;;7.93;;
2622;SDS011;1321;48.690;9.022;2023-04-15T08:18:45;7.70;;;7.50;;
2622;SDS011;1321;48.690;9.022;2023-04-15T08:21:14;8.10;;;7.80;;
2622;SDS011;1321;48.690;9.022;2023-04-15T08:23:43;8.43;;;7.60;;
2622;SDS011;1321;48.690;9.022;2023-04-15T08:26:12;8.70;;;7.97;;
2622;SDS011;1321;48.690;9.022;2023-04-15T08:28:40;7.60;;;7.30;;
2622;SDS011;1321;48.690;9.022;2023-04-15T08:31:09;7.90;;;7.60;;
2622;SDS011;1321;48.690;9.022;2023-04-15T08:33:37;7.83;;;7.30;;
2622;SDS011;1321;48.690;9.022;2023-04-15T08:36:05;8.27;;;7.82;;
2622;SDS011;1321;48.690;9.022;2023-04-15T08:38:36;7.87;;;7.57;;
2622;SDS011;1321;48.690;9.022;2023-04-15T08:41:06;7.87;;;7.50;;
2622;SDS011;1321;48.690;9.022;2023-04-15T08:43:39;8.20;;;7.80;;
2622;SDS011;1321;48.690;9.022;2023-04-15T08:46:13;7.17;;;6.97;;
2622;SDS011;1321;48.690;9.022;2023-04-15T08:48:43;7.40;;;7.20;;
2622;SDS011;1321;48.690;9.022;2023-04-15T08:51:13;7.97;;;7.67;;
2622;SDS011;1321;48.690;9.022;2023-04-15T08:53:44;7.67;;;7.37;;
2622;SDS011;1321;48.690;9.022;2023-04-15T08:56:13;7.87;;;7.57;;
2622;SDS011;1321;48.690;9.022;2023-04-15T08:58:42;7.47;;;7.00;;
2622;SDS011;1321;48.690;9.022;2023-04-15T09:01:11;7.60;;;7.33;;
2622;SDS011;1321;48.690;9.022;2023-04-15T09:03:40;6.90;;;6.57;;
2622;SDS011;1321;48.690;9.022;2023-04-15T09:06:10;6.77;;;6.50;;
2622;SDS011;1321;48.690;9.022;2023-04-15T09:08:38;7.50;;;7.10;;
2622;SDS011;1321;48.690;9.022;2023-04-15T09:11:08;7.60;;;7.40;;
2622;SDS011;1321;48.690;9.022;2023-04-15T09:13:36;6.50;;;6.30;;
2622;SDS011;1321;48.690;9.022;2023-04-15T09:16:04;7.00;;;6.70;;
2622;SDS011;1321;48.690;9.022;2023-04-15T09:18:34;6.23;;;5.90;;
2622;SDS011;1321;48.690;9.022;2023-04-15T09:21:03;5.87;;;5.67;;
2622;SDS011;1321;48.690;9.022;2023-04-15T09:23:34;6.83;;;6.43;;
2622;SDS011;1321;48.690;9.022;2023-04-15T09:26:03;6.00;;;5.70;;
2622;SDS011;1321;48.690;9.022;2023-04-15T09:28:33;6.90;;;6.40;;
2622;SDS011;1321;48.690;9.022;2023-04-15T09:31:08;5.57;;;5.47;;
2622;SDS011;1321;48.690;9.022;2023-04-15T09:33:52;5.90;;;5.50;;
2622;SDS011;1321;48.690;9.022;2023-04-15T09:36:21;5.60;;;5.50;;
2622;SDS011;1321;48.690;9.022;2023-04-15T09:38:53;6.03;;;5.73;;
2622;SDS011;1321;48.690;9.022;2023-04-15T09:41:22;5.77;;;5.57;;
2622;SDS011;1321;48.690;9.022;2023-04-15T09:43:52;5.70;;;5.40;;
2622;SDS011;1321;48.690;9.022;2023-04-15T09:46:20;5.57;;;5.27;;
2622;SDS011;1321;48.690;9.022;2023-04-15T09:49:08;5.30;;;5.00;;
2622;SDS011;1321;48.690;9.022;2023-04-15T09:51:36;5.43;;;5.13;;
2622;SDS011;1321;48.690;9.022;2023-04-15T09:54:05;5.37;;;5.17;;
2622;SDS011;1321;48.690;9.022;2023-04-15T09:56:33;5.43;;;5.10;;
2622;SDS011;1321;48.690;9.022;2023-04-15T09:59:05;5.27;;;5.17;;
2622;SDS011;1321;48.690;9.022;2023-04-15T10:01:33;5.47;;;5.20;;
2622;SDS011;1321;48.690;9.022;2023-04-15T10:04:02;6.87;;;6.30;;
2622;SDS011;1321;48.690;9.022;2023-04-15T10:06:31;7.77;;;7.13;;
2622;SDS011;1321;48.690;9.022;2023-04-15T10:09:01;5.60;;;5.40;;
2622;SDS011;1321;48.690;9.022;2023-04-15T10:11:29;5.20;;;5.00;;
2622;SDS011;1321;48.690;9.022;2023-04-15T10:13:59;4.90;;;4.80;;
2622;SDS011;1321;48.690;9.022;2023-04-15T10:16:29;5.30;;;5.00;;
2622;SDS011;1321;48.690;9.022;2023-04-15T10:19:00;5.00;;;4.83;;
2622;SDS011;1321;48.690;9.022;2023-04-15T10:21:29;5.07;;;4.87;;
2622;SDS011;1321;48.690;9.022;2023-04-15T10:23:57;5.30;;;5.00;;
2622;SDS011;1321;48.690;9.022;2023-04-15T10:26:28;4.90;;;4.70;;
2622;SDS011;1321;48.690;9.022;2023-04-15T10:28:57;5.17;;;4.83;;
2622;SDS011;1321;48.690;9.022;2023-04-15T10:31:26;5.30;;;5.00;;
2622;SDS011;1321;48.690;9.022;2023-04-15T10:33:57;4.47;;;4.37;;
2622;SDS011;1321;48.690;9.022;2023-04-15T10:36:29;5.10;;;4.70;;
2622;SDS011;1321;48.690;9.022;2023-04-15T10:38:57;4.60;;;4.40;;
2622;SDS011;1321;48.690;9.022;2023-04-15T10:41:27;4.90;;;4.70;;
2622;SDS011;1321;48.690;9.022;2023-04-15T10:43:59;5.53;;;5.00;;
2622;SDS011;1321;48.690;9.022;2023-04-15T10:46:33;5.50;;;5.10;;
2622;SDS011;1321;48.690;9.022;2023-04-15T10:49:08;5.23;;;5.00;;
2622;SDS011;1321;48.690;9.022;2023-04-15T10:51:38;5.20;;;5.00;;
2622;SDS011;1321;48.690;9.022;2023-04-15T10:54:08;5.27;;;5.07;;
2622;SDS011;1321;48.690;9.022;2023-04-15T10:56:40;5.30;;;5.10;;
2622;SDS011;1321;48.690;9.022;2023-04-15T10:59:09;5.20;;;4.90;;
2622;SDS011;1321;48.690;9.022;2023-04-15T11:01:50;5.37;;;5.17;;
2622;SDS011;1321;48.690;9.022;2023-04-15T11:07:34;5.77;;;5.57;;
2622;SDS011;1321;48.690;9.022;2023-04-15T11:10:03;6.53;;;6.07;;
2622;SDS011;1321;48.690;9.022;2023-04-15T11:13:02;7.33;;;6.83;;
2622;SDS011;1321;48.690;9.022;2023-04-15T11:15:32;7.60;;;7.03;;
2622;SDS011;1321;48.690;9.022;2023-04-15T11:18:07;7.17;;;6.87;;
2622;SDS011;1321;48.690;9.022;2023-04-15T11:20:39;7.33;;;6.90;;
2622;SDS011;1321;48.690;9.022;2023-04-15T11:23:10;7.33;;;6.80;;
2622;SDS011;1321;48.690;9.022;2023-04-15T11:25:40;8.17;;;7.47;;
2622;SDS011;1321;48.690;9.022;2023-04-15T11:28:10;6.97;;;6.57;;
2622;SDS011;1321;48.690;9.022;2023-04-15T11:30:38;7.53;;;7.13;;
2622;SDS011;1321;48.690;9.022;2023-04-15T11:33:08;8.20;;;6.83;;
2622;SDS011;1321;48.690;9.022;2023-04-15T11:35:41;6.87;;;6.57;;
2622;SDS011;1321;48.690;9.022;2023-04-15T11:38:09;6.87;;;6.57;;
2622;SDS011;1321;48.690;9.022;2023-04-15T11:40:39;7.30;;;6.90;;
2622;SDS011;1321;48.690;9.022;2023-04-15T11:43:12;6.60;;;6.30;;
2622;SDS011;1321;48.690;9.022;2023-04-15T11:45:48;6.60;;;6.30;;
2622;SDS011;1321;48.690;9.022;2023-04-15T11:48:20;6.10;;;5.83;;
2622;SDS011;1321;48.690;9.022;2023-04-15T11:50:54;6.17;;;5.77;;
2622;SDS011;1321;48.690;9.022;2023-04-15T11:53:24;7.00;;;6.50;;
2622;SDS011;1321;48.690;9.022;2023-04-15T11:56:03;6.50;;;6.00;;
2622;SDS011;1321;48.690;9.022;2023-04-15T11:58:33;6.70;;;6.40;;
2622;SDS011;1321;48.690;9.022;2023-04-15T12:01:04;6.53;;;6.23;;
2622;SDS011;1321;48.690;9.022;2023-04-15T12:03:36;6.93;;;6.32;;
2622;SDS011;1321;48.690;9.022;2023-04-15T12:06:07;6.03;;;5.73;;
2622;SDS011;1321;48.690;9.022;2023-04-15T12:11:36;6.13;;;5.80;;
2622;SDS011;1321;48.690;9.022;2023-04-15T12:14:09;6.03;;;5.83;;
2622;SDS011;1321;48.690;9.022;2023-04-15T12:16:40;6.00;;;5.60;;
2622;SDS011;1321;48.690;9.022;2023-04-15T12:19:15;6.57;;;6.00;;
2622;SDS011;1321;48.690;9.022;2023-04-15T12:21:50;6.00;;;5.80;;
2622;SDS011;1321;48.690;9.022;2023-04-15T12:24:19;7.20;;;6.60;;
2622;SDS011;1321;48.690;9.022;2023-04-15T12:26:49;6.80;;;6.40;;
2622;SDS011;1321;48.690;9.022;2023-04-15T12:29:19;7.30;;;6.90;;
2622;SDS011;1321;48.690;9.022;2023-04-15T12:31:52;7.23;;;6.80;;
2622;SDS011;1321;48.690;9.022;2023-04-15T12:34:27;6.70;;;6.40;;
2622;SDS011;1321;48.690;9.022;2023-04-15T12:36:59;7.63;;;7.13;;
2622;SDS011;1321;48.690;9.022;2023-04-15T12:39:37;7.70;;;7.27;;
2622;SDS011;1321;48.690;9.022;2023-04-15T12:42:07;6.83;;;6.53;;
2622;SDS011;1321;48.690;9.022;2023-04-15T12:44:36;6.83;;;6.43;;
2622;SDS011;1321;48.690;9.022;2023-04-15T12:47:06;6.37;;;6.10;;
2622;SDS011;1321;48.690;9.022;2023-04-15T12:49:35;7.10;;;5.80;;
2622;SDS011;1321;48.690;9.022;2023-04-15T12:52:05;6.83;;;6.50;;
2622;SDS011;1321;48.690;9.022;2023-04-15T12:54:34;6.87;;;6.37;;
2622;SDS011;1321;48.690;9.022;2023-04-15T12:57:02;6.10;;;5.80;;
2622;SDS011;1321;48.690;9.022;2023-04-15T12:59:33;6.30;;;5.90;;
2622;SDS011;1321;48.690;9.022;2023-04-15T13:02:01;6.30;;;5.80;;
2622;SDS011;1321;48.690;9.022;2023-04-15T13:04:30;6.53;;;6.23;;
2622;SDS011;1321;48.690;9.022;2023-04-15T13:06:58;6.50;;;6.00;;
2622;SDS011;1321;48.690;9.022;2023-04-15T13:09:28;6.63;;;6.13;;
2622;SDS011;1321;48.690;9.022;2023-04-15T13:11:56;6.33;;;5.93;;
2622;SDS011;1321;48.690;9.022;2023-04-15T13:14:24;6.80;;;6.50;;
2622;SDS011;1321;48.690;9.022;2023-04-15T13:16:52;6.33;;;5.93;;
2622;SDS011;1321;48.690;9.022;2023-04-15T13:19:20;6.27;;;5.77;;
2622;SDS011;1321;48.690;9.022;2023-04-15T13:21:49;6.10;;;5.70;;
2622;SDS011;1321;48.690;9.022;2023-04-15T13:24:17;6.23;;;5.83;;
2622;SDS011;1321;48.690;9.022;2023-04-15T13:26:46;6.70;;;6.33;;
2622;SDS011;1321;48.690;9.022;2023-04-15T13:29:15;6.17;;;5.97;;
2622;SDS011;1321;48.690;9.022;2023-04-15T13:31:44;7.27;;;6.80;;
2622;SDS011;1321;48.690;9.022;2023-04-15T13:34:12;6.40;;;6.10;;
2622;SDS011;1321;48.690;9.022;2023-04-15T13:36:40;6.50;;;6.10;;
2622;SDS011;1321;48.690;9.022;2023-04-15T13:39:08;6.23;;;5.73;;
2622;SDS011;1321;48.690;9.022;2023-04-15T13:41:36;6.60;;;6.10;;
2622;SDS011;1321;48.690;9.022;2023-04-15T13:44:06;6.40;;;6.00;;
2622;SDS011;1321;48.690;9.022;2023-04-15T13:46:34;6.27;;;5.90;;
2622;SDS011;1321;48.690;9.022;2023-04-15T13:49:03;6.57;;;6.17;;
2622;SDS011;1321;48.690;9.022;2023-04-15T13:51:31;6.83;;;6.60;;
2622;SDS011;1321;48.690;9.022;2023-04-15T13:54:01;9.43;;;7.33;;
2622;SDS011;1321;48.690;9.022;2023-04-15T13:56:29;7.23;;;6.63;;
2622;SDS011;1321;48.690;9.022;2023-04-15T13:58:58;7.47;;;7.07;;
2622;SDS011;1321;48.690;9.022;2023-04-15T14:01:28;7.10;;;6.57;;
2622;SDS011;1321;48.690;9.022;2023-04-15T14:03:59;6.78;;;6.38;;
2622;SDS011;1321;48.690;9.022;2023-04-15T14:06:28;6.50;;;5.90;;
2622;SDS011;1321;48.690;9.022;2023-04-15T14:08:57;5.97;;;5.67;;
2622;SDS011;1321;48.690;9.022;2023-04-15T14:11:25;5.90;;;5.60;;
2622;SDS011;1321;48.690;9.022;2023-04-15T14:13:55;5.53;;;5.23;;
2622;SDS011;1321;48.690;9.022;2023-04-15T14:16:23;5.37;;;5.17;;
2622;SDS011;1321;48.690;9.022;2023-04-15T14:18:52;4.90;;;4.73;;
2622;SDS011;1321;48.690;9.022;2023-04-15T14:21:21;4.70;;;4.30;;
2622;SDS011;1321;48.690;9.022;2023-04-15T14:23:49;3.90;;;3.70;;
2622;SDS011;1321;48.690;9.022;2023-04-15T14:26:17;4.50;;;4.30;;
2622;SDS011;1321;48.690;9.022;2023-04-15T14:28:45;3.53;;;3.40;;
2622;SDS011;1321;48.690;9.022;2023-04-15T14:31:13;3.63;;;3.30;;
2622;SDS011;1321;48.690;9.022;2023-04-15T14:33:42;4.03;;;3.90;;
2622;SDS011;1321;48.690;9.022;2023-04-15T14:36:11;4.07;;;3.97;;
2622;SDS011;1321;48.690;9.022;2023-04-15T14:38:39;3.80;;;3.70;;
2622;SDS011;1321;48.690;9.022;2023-04-15T14:41:07;3.50;;;3.40;;
2622;SDS011;1321;48.690;9.022;2023-04-15T14:43:36;3.80;;;3.60;;
2622;SDS011;1321;48.690;9.022;2023-04-15T14:46:04;3.80;;;3.60;;
2622;SDS011;1321;48.690;9.022;2023-04-15T14:48:33;4.37;;;4.00;;
2622;SDS011;1321;48.690;9.022;2023-04-15T14:51:02;4.53;;;4.33;;
2622;SDS011;1321;48.690;9.022;2023-04-15T14:53:32;4.10;;;3.90;;
2622;SDS011;1321;48.690;9.022;2023-04-15T14:56:00;4.07;;;3.83;;
2622;SDS011;1321;48.690;9.022;2023-04-15T14:58:28;4.93;;;4.60;;
2622;SDS011;1321;48.690;9.022;2023-04-15T15:00:56;4.93;;;4.73;;
2622;SDS011;1321;48.690;9.022;2023-04-15T15:03:24;4.57;;;4.47;;
2622;SDS011;1321;48.690;9.022;2023-04-15T15:05:53;5.10;;;4.80;;
2622;SDS011;1321;48.690;9.022;2023-04-15T15:08:23;5.30;;;5.00;;
2622;SDS011;1321;48.690;9.022;2023-04-15T15:10:52;5.70;;;5.30;;
2622;SDS011;1321;48.690;9.022;2023-04-15T15:13:20;5.00;;;4.70;;
2622;SDS011;1321;48.690;9.022;2023-04-15T15:15:48;5.53;;;5.23;;
2622;SDS011;1321;48.690;9.022;2023-04-15T15:18:16;5.57;;;5.27;;
2622;SDS011;1321;48.690;9.022;2023-04-15T15:20:45;5.00;;;4.80;;
2622;SDS011;1321;48.690;9.022;2023-04-15T15:23:13;5.47;;;5.07;;
2622;SDS011;1321;48.690;9.022;2023-04-15T15:25:42;5.30;;;5.10;;
2622;SDS011;1321;48.690;9.022;2023-04-15T15:28:12;5.23;;;5.10;;
2622;SDS011;1321;48.690;9.022;2023-04-15T15:30:40;5.17;;;4.97;;
2622;SDS011;1321;48.690;9.022;2023-04-15T15:33:08;5.50;;;5.30;;
2622;SDS011;1321;48.690;9.022;2023-04-15T15:35:36;5.53;;;5.23;;